Time;durP1;ratioP1;P1;durP2;ratioP2;P2;SDS_P1;SDS_P2;PMS_P1;PMS_P2;Temp;Humidity;BMP_temperature;BMP_pressure;BME280_temperature;BME280_humidity;BME280_pressure;Samples;Min_cycle;Max_cycle;Signal;HPM_P1;HPM_P2
2021/10/10 00:00:33;;;;;;;18.90;8.27;;;;;;;5.13;100.00;94603.13;5076331;28;20203;-76
2021/10/10 00:03:00;;;;;;;18.73;8.47;;;;;;;4.95;100.00;94595.34;5076033;28;20209;-76
2021/10/10 00:05:26;;;;;;;21.57;8.43;;;;;;;4.86;100.00;94599.59;5076093;28;20202;-76
2021/10/10 00:07:52;;;;;;;19.67;8.27;;;;;;;4.74;100.00;94601.56;5067226;28;20254;-76
2021/10/10 00:10:19;;;;;;;23.30;8.13;;;;;;;4.58;100.00;94601.38;5055926;28;20257;-76
2021/10/10 00:12:45;;;;;;;18.03;7.60;;;;;;;4.42;100.00;94602.00;5055610;28;20254;-76
2021/10/10 00:15:13;;;;;;;18.43;7.93;;;;;;;4.21;100.00;94610.78;5055970;28;20211;-76
2021/10/10 00:17:41;;;;;;;18.20;8.40;;;;;;;3.97;100.00;94606.06;5074461;28;20535;-76
2021/10/10 00:20:09;;;;;;;17.33;8.20;;;;;;;3.69;100.00;94615.50;5075665;28;20534;-76
2021/10/10 00:22:35;;;;;;;20.47;8.67;;;;;;;3.43;100.00;94617.78;5075750;28;20256;-76
2021/10/10 00:25:02;;;;;;;18.37;8.23;;;;;;;3.24;100.00;94616.84;5075719;28;20229;-76
2021/10/10 00:27:28;;;;;;;20.00;7.77;;;;;;;3.02;100.00;94622.25;5056699;28;20702;-76
2021/10/10 00:29:54;;;;;;;18.87;8.60;;;;;;;2.83;100.00;94623.84;5055704;28;20211;-76
2021/10/10 00:32:21;;;;;;;17.80;9.17;;;;;;;2.82;100.00;94624.78;5055528;28;20203;-76
2021/10/10 00:34:49;;;;;;;23.13;9.03;;;;;;;2.71;100.00;94619.72;5055605;28;20207;-76
2021/10/10 00:37:16;;;;;;;19.60;8.93;;;;;;;2.51;100.00;94619.66;5055408;28;20203;-77
2021/10/10 00:39:42;;;;;;;28.57;11.67;;;;;;;2.56;100.00;94622.66;5055399;28;20211;-76
2021/10/10 00:42:09;;;;;;;22.63;10.03;;;;;;;2.47;100.00;94627.81;5055340;28;20203;-77
2021/10/10 00:44:35;;;;;;;22.97;11.07;;;;;;;2.39;100.00;94625.84;5055396;28;20199;-76
2021/10/10 00:47:02;;;;;;;21.63;10.13;;;;;;;2.26;100.00;94625.25;5055040;28;20658;-76
2021/10/10 00:49:29;;;;;;;22.97;9.83;;;;;;;2.20;100.00;94617.09;5055247;28;20646;-76
2021/10/10 00:51:58;;;;;;;27.67;11.17;;;;;;;2.27;100.00;94614.81;5055056;28;20249;-77
2021/10/10 00:54:25;;;;;;;30.47;11.13;;;;;;;2.42;100.00;94620.44;5054765;28;20239;-76
2021/10/10 00:56:55;;;;;;;21.80;9.30;;;;;;;2.21;100.00;94613.59;5058824;28;20203;-76
2021/10/10 00:59:23;;;;;;;25.73;10.57;;;;;;;2.38;100.00;94607.00;5075030;28;20302;-76
2021/10/10 01:01:50;;;;;;;27.73;10.67;;;;;;;2.48;100.00;94601.91;5074850;28;20206;-76
2021/10/10 01:04:17;;;;;;;26.08;11.65;;;;;;;2.41;100.00;94593.03;5074692;28;20487;-76
2021/10/10 01:06:43;;;;;;;21.43;10.37;;;;;;;2.27;100.00;94601.16;5074784;28;20565;-77
2021/10/10 01:09:13;;;;;;;25.63;9.77;;;;;;;2.21;100.00;94598.13;5074966;28;20234;-76
2021/10/10 01:11:40;;;;;;;20.00;9.00;;;;;;;2.26;100.00;94596.91;5074816;28;20547;-76
2021/10/10 01:14:07;;;;;;;23.70;10.20;;;;;;;2.16;100.00;94596.88;5074679;28;20198;-75
2021/10/10 01:16:34;;;;;;;20.60;9.10;;;;;;;2.03;100.00;94589.34;5074554;28;20229;-76
2021/10/10 01:19:00;;;;;;;20.70;9.13;;;;;;;1.92;100.00;94581.72;5074468;28;20203;-76
2021/10/10 01:21:28;;;;;;;21.03;9.00;;;;;;;1.87;100.00;94573.56;5074378;28;20202;-76
2021/10/10 01:23:55;;;;;;;27.13;10.73;;;;;;;2.03;100.00;94569.59;5074854;28;20194;-75
2021/10/10 01:26:22;;;;;;;20.50;8.90;;;;;;;2.09;100.00;94578.53;5074640;28;20202;-76
2021/10/10 01:28:48;;;;;;;23.87;10.20;;;;;;;2.20;100.00;94567.34;5074535;28;20276;-76
2021/10/10 01:31:15;;;;;;;25.30;10.30;;;;;;;2.09;100.00;94573.38;5074506;28;20202;-76
2021/10/10 01:33:44;;;;;;;29.50;11.20;;;;;;;2.05;100.00;94569.47;5074285;28;20248;-77
2021/10/10 01:36:11;;;;;;;24.60;9.87;;;;;;;1.95;100.00;94582.28;5074259;28;20561;-76
2021/10/10 01:38:40;;;;;;;23.20;10.50;;;;;;;1.82;100.00;94564.44;5073759;28;20232;-76
2021/10/10 01:41:07;;;;;;;19.97;9.00;;;;;;;1.69;100.00;94568.19;5074268;28;20249;-77
2021/10/10 01:43:34;;;;;;;28.83;10.67;;;;;;;1.66;100.00;94564.91;5074305;28;20198;-76
2021/10/10 01:46:00;;;;;;;20.53;9.50;;;;;;;1.59;100.00;94570.69;5074127;28;20713;-76
2021/10/10 01:48:26;;;;;;;24.70;10.47;;;;;;;1.46;100.00;94569.09;5073838;28;20284;-76
2021/10/10 01:50:53;;;;;;;23.97;11.03;;;;;;;1.54;100.00;94568.47;5073816;28;20195;-76
2021/10/10 01:53:19;;;;;;;23.30;10.73;;;;;;;1.51;100.00;94566.16;5074110;28;20199;-75
2021/10/10 01:55:48;;;;;;;23.10;10.57;;;;;;;1.38;100.00;94571.50;5073924;28;20230;-75
2021/10/10 01:58:14;;;;;;;23.70;11.03;;;;;;;1.29;100.00;94574.81;5074018;28;20194;-76
2021/10/10 02:00:41;;;;;;;25.83;9.93;;;;;;;1.15;100.00;94569.94;5073960;28;20198;-77
2021/10/10 02:03:08;;;;;;;26.07;11.60;;;;;;;1.23;100.00;94565.00;5073658;28;20616;-77
2021/10/10 02:05:34;;;;;;;24.67;10.60;;;;;;;1.16;100.00;94569.03;5074149;28;20249;-76
2021/10/10 02:08:00;;;;;;;27.47;10.90;;;;;;;1.10;100.00;94565.19;5073905;28;20291;-76
2021/10/10 02:10:27;;;;;;;26.50;11.03;;;;;;;1.14;100.00;94564.00;5073799;28;20202;-76
2021/10/10 02:12:55;;;;;;;23.90;10.50;;;;;;;1.06;100.00;94564.59;5073672;28;20202;-76
2021/10/10 02:15:21;;;;;;;27.47;10.60;;;;;;;0.97;100.00;94564.56;5073603;28;20248;-76
2021/10/10 02:17:47;;;;;;;30.97;11.17;;;;;;;1.20;100.00;94554.97;5073649;28;20603;-76
2021/10/10 02:20:14;;;;;;;32.03;11.90;;;;;;;1.05;100.00;94552.72;5073536;28;20727;-75
2021/10/10 02:22:40;;;;;;;35.40;11.57;;;;;;;1.01;100.00;94551.31;5073697;28;20199;-75
2021/10/10 02:25:08;;;;;;;29.83;12.23;;;;;;;1.28;100.00;94553.44;5073524;28;20657;-76
2021/10/10 02:27:34;;;;;;;25.33;11.77;;;;;;;1.13;100.00;94548.69;5073444;28;20260;-76
2021/10/10 02:30:02;;;;;;;21.63;10.80;;;;;;;0.93;100.00;94548.53;5073530;28;20205;-75
2021/10/10 02:32:29;;;;;;;19.77;9.47;;;;;;;0.84;100.00;94544.94;5073244;28;20271;-76
2021/10/10 02:34:56;;;;;;;31.70;10.57;;;;;;;1.07;100.00;94545.69;5073671;28;20199;-75
2021/10/10 02:37:23;;;;;;;27.63;11.10;;;;;;;1.28;100.00;94547.44;5073488;28;20198;-75
2021/10/10 02:39:51;;;;;;;25.03;11.30;;;;;;;1.06;100.00;94548.38;5073416;28;20203;-76
2021/10/10 02:42:18;;;;;;;27.67;11.20;;;;;;;1.04;100.00;94537.41;5073480;28;20281;-76
2021/10/10 02:44:44;;;;;;;25.73;12.10;;;;;;;0.95;100.00;94545.84;5073110;28;20203;-76
2021/10/10 02:47:14;;;;;;;26.80;10.83;;;;;;;0.78;100.00;94534.34;5073410;28;20202;-76
2021/10/10 02:49:40;;;;;;;24.37;11.03;;;;;;;0.93;100.00;94543.38;5073088;28;20226;-76
2021/10/10 02:52:07;;;;;;;25.53;11.43;;;;;;;1.07;100.00;94540.53;5073222;28;20531;-75
2021/10/10 02:54:33;;;;;;;32.10;12.17;;;;;;;0.96;100.00;94538.00;5073048;28;20277;-76
2021/10/10 02:57:00;;;;;;;25.53;11.23;;;;;;;0.79;100.00;94533.41;5073071;28;20248;-76
2021/10/10 02:59:26;;;;;;;26.93;12.10;;;;;;;0.94;100.00;94532.19;5072946;28;20264;-75
2021/10/10 03:01:53;;;;;;;26.40;11.60;;;;;;;1.01;100.00;94530.75;5073285;28;20272;-75
2021/10/10 03:04:20;;;;;;;34.40;11.53;;;;;;;1.00;100.00;94531.69;5073187;28;20387;-75
2021/10/10 03:06:47;;;;;;;29.73;12.77;;;;;;;1.15;100.00;94534.78;5072451;28;20199;-75
2021/10/10 03:09:14;;;;;;;34.93;14.07;;;;;;;1.39;100.00;94531.97;5072905;28;20628;-76
2021/10/10 03:11:41;;;;;;;43.37;15.93;;;;;;;1.71;100.00;94528.50;5072953;28;20306;-75
2021/10/10 03:14:07;;;;;;;39.83;14.63;;;;;;;1.85;100.00;94533.31;5072752;28;20194;-76
2021/10/10 03:16:33;;;;;;;31.80;13.97;;;;;;;1.96;100.00;94541.88;5073209;28;20214;-75
2021/10/10 03:19:00;;;;;;;31.33;13.50;;;;;;;1.86;100.00;94539.28;5073003;28;20206;-75
2021/10/10 03:21:28;;;;;;;30.37;11.83;;;;;;;1.73;100.00;94544.63;5072961;28;20206;-75
2021/10/10 03:23:54;;;;;;;34.73;12.33;;;;;;;1.60;100.00;94541.44;5072820;28;20248;-75
2021/10/10 03:26:21;;;;;;;25.07;11.37;;;;;;;1.50;100.00;94535.41;5072772;28;20199;-76
2021/10/10 03:28:47;;;;;;;30.77;11.27;;;;;;;1.43;100.00;94546.22;5072613;28;20234;-75
2021/10/10 03:31:14;;;;;;;25.47;11.07;;;;;;;1.30;100.00;94543.03;5072826;28;20244;-75
2021/10/10 03:33:40;;;;;;;23.53;10.03;;;;;;;1.20;100.00;94547.25;5072866;28;20248;-75
2021/10/10 03:36:07;;;;;;;21.57;9.07;;;;;;;1.15;100.00;94549.38;5072832;28;20202;-76
2021/10/10 03:38:34;;;;;;;27.87;11.37;;;;;;;1.02;100.00;94544.44;5072761;28;20260;-75
2021/10/10 03:41:01;;;;;;;31.90;11.37;;;;;;;0.96;100.00;94547.47;5072622;28;20194;-75
2021/10/10 03:43:27;;;;;;;34.00;15.02;;;;;;;0.91;100.00;94553.00;5072418;28;20446;-75
2021/10/10 03:45:54;;;;;;;30.70;11.57;;;;;;;0.87;100.00;94551.63;5072870;28;20202;-76
2021/10/10 03:48:20;;;;;;;23.40;10.77;;;;;;;0.78;100.00;94560.03;5072634;28;20280;-75
2021/10/10 03:50:47;;;;;;;20.67;10.27;;;;;;;0.73;100.00;94556.09;5072676;28;20207;-76
2021/10/10 03:53:13;;;;;;;25.90;11.30;;;;;;;0.67;100.00;94561.69;5072502;28;20542;-75
2021/10/10 03:55:41;;;;;;;26.57;11.53;;;;;;;0.76;100.00;94556.78;5072329;28;20238;-75
2021/10/10 03:58:09;;;;;;;30.60;12.53;;;;;;;0.66;100.00;94552.34;5072667;28;20203;-75
2021/10/10 04:00:37;;;;;;;32.70;12.00;;;;;;;0.64;100.00;94551.66;5072504;28;20195;-75
2021/10/10 04:03:05;;;;;;;25.30;12.03;;;;;;;0.70;100.00;94551.19;5074443;28;20202;-75
2021/10/10 04:05:41;;;;;;;24.90;12.60;;;;;;;0.59;100.00;94555.53;5076185;28;20195;-75
2021/10/10 04:08:08;;;;;;;27.60;11.83;;;;;;;0.55;100.00;94558.34;5075860;28;20198;-75
2021/10/10 04:10:34;;;;;;;26.23;12.20;;;;;;;0.48;100.00;94554.63;5076221;28;20199;-75
2021/10/10 04:13:02;;;;;;;27.87;12.33;;;;;;;0.76;100.00;94555.00;5076048;28;20203;-75
2021/10/10 04:15:29;;;;;;;27.03;12.07;;;;;;;0.87;100.00;94551.63;5075822;28;20244;-75
2021/10/10 04:17:55;;;;;;;32.10;11.87;;;;;;;0.72;100.00;94551.88;5075786;28;20653;-75
2021/10/10 04:20:22;;;;;;;25.73;11.97;;;;;;;0.60;100.00;94558.00;5075766;28;20199;-75
2021/10/10 04:22:48;;;;;;;23.57;10.83;;;;;;;0.41;100.00;94552.66;5075592;28;20207;-75
2021/10/10 04:25:15;;;;;;;24.63;10.37;;;;;;;0.25;100.00;94543.56;5075890;28;20198;-75
2021/10/10 04:27:42;;;;;;;20.47;10.00;;;;;;;0.16;100.00;94547.63;5075590;28;20207;-75
2021/10/10 04:30:12;;;;;;;26.20;10.70;;;;;;;0.10;100.00;94552.44;5075578;28;20233;-75
2021/10/10 04:32:39;;;;;;;33.23;11.27;;;;;;;0.06;100.00;94548.47;5075592;28;20209;-75
2021/10/10 04:35:06;;;;;;;31.50;11.00;;;;;;;-0.01;100.00;94554.06;5075593;28;20324;-76
2021/10/10 04:37:32;;;;;;;25.80;10.10;;;;;;;0.01;100.00;94546.25;5075487;28;20198;-75
2021/10/10 04:39:59;;;;;;;29.87;10.90;;;;;;;0.22;100.00;94548.94;5075453;28;20249;-76
2021/10/10 04:42:25;;;;;;;25.23;11.70;;;;;;;0.26;100.00;94544.38;5075632;28;20229;-75
2021/10/10 04:44:52;;;;;;;27.77;11.87;;;;;;;0.16;100.00;94539.94;5075615;28;20719;-75
2021/10/10 04:47:20;;;;;;;29.03;12.07;;;;;;;0.10;100.00;94537.03;5075365;28;20198;-76
2021/10/10 04:49:47;;;;;;;30.20;11.93;;;;;;;-0.08;100.00;94541.84;5075784;28;20313;-75
2021/10/10 04:52:13;;;;;;;28.83;11.53;;;;;;;-0.07;100.00;94544.25;5075412;28;20214;-75
2021/10/10 04:54:40;;;;;;;30.67;12.33;;;;;;;-0.05;100.00;94546.72;5075077;28;20438;-75
2021/10/10 04:57:06;;;;;;;27.67;12.27;;;;;;;-0.02;100.00;94539.63;5075286;28;20256;-76
2021/10/10 04:59:33;;;;;;;37.50;12.97;;;;;;;0.05;100.00;94536.56;5075014;28;20248;-75
2021/10/10 05:01:59;;;;;;;31.60;12.50;;;;;;;0.04;100.00;94545.22;5075100;28;20210;-76
2021/10/10 05:04:27;;;;;;;33.90;12.37;;;;;;;0.15;100.00;94545.19;5074917;28;20203;-75
2021/10/10 05:06:53;;;;;;;35.90;12.87;;;;;;;0.04;100.00;94540.09;5074580;28;20199;-75
2021/10/10 05:09:20;;;;;;;29.33;13.10;;;;;;;-0.13;100.00;94543.91;5074961;28;20234;-75
2021/10/10 05:11:46;;;;;;;31.40;11.47;;;;;;;-0.24;100.00;94542.97;5074836;28;20699;-75
2021/10/10 05:14:12;;;;;;;32.30;11.27;;;;;;;-0.30;100.00;94546.03;5074903;28;20203;-75
2021/10/10 05:16:39;;;;;;;31.17;10.50;;;;;;;-0.38;100.00;94545.78;5074782;28;20653;-75
2021/10/10 05:19:05;;;;;;;25.13;10.00;;;;;;;-0.45;100.00;94549.72;5074620;28;20210;-75
2021/10/10 05:21:33;;;;;;;28.93;10.23;;;;;;;-0.38;100.00;94546.59;5074716;28;20653;-75
2021/10/10 05:23:59;;;;;;;26.50;10.53;;;;;;;-0.29;100.00;94549.41;5074887;28;20245;-75
2021/10/10 05:26:26;;;;;;;34.00;12.70;;;;;;;-0.13;100.00;94543.91;5074619;28;20203;-75
2021/10/10 05:28:52;;;;;;;35.00;12.10;;;;;;;-0.08;100.00;94550.34;5074589;28;20219;-75
2021/10/10 05:31:18;;;;;;;37.33;13.53;;;;;;;0.10;100.00;94534.47;5074559;28;20198;-75
2021/10/10 05:33:45;;;;;;;30.90;12.23;;;;;;;-0.08;100.00;94542.66;5074397;28;20658;-76
2021/10/10 05:36:11;;;;;;;44.27;13.70;;;;;;;-0.05;100.00;94537.28;5074556;28;20202;-75
2021/10/10 05:38:39;;;;;;;28.67;12.27;;;;;;;-0.14;100.00;94543.09;5074398;28;20257;-75
2021/10/10 05:41:05;;;;;;;37.43;11.33;;;;;;;-0.26;100.00;94541.47;5074288;28;20203;-76
2021/10/10 05:43:32;;;;;;;32.60;10.97;;;;;;;-0.43;100.00;94538.41;5074536;28;20199;-76
2021/10/10 05:46:00;;;;;;;29.73;10.47;;;;;;;-0.45;100.00;94537.72;5074032;28;20255;-75
2021/10/10 05:48:26;;;;;;;27.50;10.27;;;;;;;-0.42;100.00;94545.19;5074255;28;20222;-75
2021/10/10 05:50:53;;;;;;;32.43;10.60;;;;;;;-0.38;100.00;94540.66;5074036;28;20203;-76
2021/10/10 05:53:19;;;;;;;24.50;10.37;;;;;;;-0.38;100.00;94541.47;5073714;28;20719;-75
2021/10/10 05:55:47;;;;;;;24.80;9.60;;;;;;;-0.49;100.00;94543.19;5073607;28;20227;-76
2021/10/10 05:58:18;;;;;;;26.10;11.67;;;;;;;-0.25;100.00;94545.66;5073818;28;20221;-76
2021/10/10 06:00:44;;;;;;;26.77;10.43;;;;;;;-0.25;100.00;94540.53;5073795;28;20203;-76
2021/10/10 06:03:10;;;;;;;26.77;10.73;;;;;;;-0.33;100.00;94550.53;5073922;28;20202;-75
2021/10/10 06:05:37;;;;;;;25.33;10.37;;;;;;;-0.29;100.00;94546.84;5074015;28;20206;-75
2021/10/10 06:08:04;;;;;;;38.13;11.30;;;;;;;-0.29;100.00;94554.53;5073791;28;20198;-76
2021/10/10 06:10:30;;;;;;;37.93;11.03;;;;;;;-0.20;100.00;94553.81;5073577;28;20234;-75
2021/10/10 06:12:58;;;;;;;37.07;11.77;;;;;;;-0.09;100.00;94553.03;5073581;28;20199;-76
2021/10/10 06:15:26;;;;;;;37.07;12.77;;;;;;;0.03;100.00;94564.09;5073655;28;20249;-75
2021/10/10 06:17:53;;;;;;;42.03;14.13;;;;;;;0.14;100.00;94562.34;5073386;28;20195;-75
2021/10/10 06:20:19;;;;;;;35.60;13.07;;;;;;;0.02;100.00;94557.31;5073579;28;20195;-75
2021/10/10 06:22:45;;;;;;;27.07;10.87;;;;;;;-0.03;100.00;94565.41;5073351;28;20256;-75
2021/10/10 06:25:14;;;;;;;40.07;12.37;;;;;;;-0.05;100.00;94560.38;5072978;28;20203;-75
2021/10/10 06:27:41;;;;;;;35.43;12.33;;;;;;;-0.08;100.00;94560.63;5073229;28;20203;-75
2021/10/10 06:30:09;;;;;;;33.30;12.33;;;;;;;-0.03;100.00;94560.28;5072835;28;20280;-75
2021/10/10 06:32:35;;;;;;;32.93;11.93;;;;;;;-0.02;100.00;94570.41;5073538;28;20336;-75
2021/10/10 06:35:02;;;;;;;46.17;14.00;;;;;;;0.07;100.00;94561.19;5073469;28;20202;-75
2021/10/10 06:37:29;;;;;;;39.57;14.93;;;;;;;0.22;100.00;94566.91;5073024;28;20676;-75
2021/10/10 06:39:55;;;;;;;43.70;14.83;;;;;;;0.22;100.00;94572.06;5073256;28;20259;-75
2021/10/10 06:42:21;;;;;;;44.13;15.20;;;;;;;0.30;100.00;94571.44;5073029;28;20653;-75
2021/10/10 06:44:48;;;;;;;41.47;15.20;;;;;;;0.27;100.00;94577.66;5073339;28;20202;-75
2021/10/10 06:47:16;;;;;;;36.53;13.37;;;;;;;0.32;100.00;94575.53;5073226;28;20261;-76
2021/10/10 06:49:43;;;;;;;40.60;13.73;;;;;;;0.43;100.00;94577.25;5073078;28;20317;-75
2021/10/10 06:52:09;;;;;;;42.13;14.03;;;;;;;0.62;100.00;94586.94;5073235;28;20557;-76
2021/10/10 06:54:36;;;;;;;52.73;14.40;;;;;;;0.58;100.00;94580.41;5072969;28;20648;-76
2021/10/10 06:57:03;;;;;;;37.57;14.30;;;;;;;0.61;100.00;94580.16;5072902;28;20202;-75
2021/10/10 06:59:30;;;;;;;49.93;14.57;;;;;;;0.72;100.00;94584.47;5072123;28;20202;-76
2021/10/10 07:01:56;;;;;;;43.33;14.87;;;;;;;0.75;100.00;94581.66;5072241;28;20253;-76
2021/10/10 07:04:24;;;;;;;41.23;13.33;;;;;;;0.77;100.00;94589.22;5073078;28;20225;-76
2021/10/10 07:06:50;;;;;;;45.83;14.67;;;;;;;0.85;100.00;94581.75;5071455;28;20198;-76
2021/10/10 07:09:17;;;;;;;41.43;14.67;;;;;;;0.89;100.00;94585.72;5072132;28;20284;-77
2021/10/10 07:11:43;;;;;;;39.33;14.30;;;;;;;1.05;100.00;94583.56;5072050;28;20588;-76
2021/10/10 07:14:10;;;;;;;46.93;15.40;;;;;;;1.18;100.00;94587.72;5072266;28;20194;-76
2021/10/10 07:16:37;;;;;;;44.77;16.53;;;;;;;1.23;100.00;94586.41;5071552;28;20191;-76
2021/10/10 07:19:05;;;;;;;39.57;15.57;;;;;;;1.30;100.00;94586.75;5071922;28;20203;-76
2021/10/10 07:21:42;;;;;;;45.63;15.70;;;;;;;1.44;100.00;94594.16;5072407;28;20206;-76
2021/10/10 07:26:53;;;;;;;42.43;14.70;;;;;;;1.73;100.00;94582.41;5072700;28;20201;-76
2021/10/10 07:29:20;;;;;;;43.67;16.67;;;;;;;1.88;100.00;94598.34;5072525;28;20222;-76
2021/10/10 07:31:47;;;;;;;40.97;16.03;;;;;;;2.04;100.00;94585.84;5072675;28;20203;-76
2021/10/10 07:34:13;;;;;;;43.17;15.67;;;;;;;2.21;100.00;94598.13;5072586;28;20203;-77
2021/10/10 07:36:41;;;;;;;43.93;16.27;;;;;;;2.39;100.00;94595.75;5072452;28;20236;-78
2021/10/10 07:39:07;;;;;;;50.33;17.40;;;;;;;2.55;100.00;94600.44;5076319;28;20210;-76
2021/10/10 07:41:36;;;;;;;43.73;17.13;;;;;;;2.74;100.00;94606.59;5076507;28;20198;-76
2021/10/10 07:44:05;;;;;;;47.30;17.80;;;;;;;2.89;100.00;94613.00;5076280;28;20684;-78
2021/10/10 07:46:37;;;;;;;48.83;16.97;;;;;;;3.01;100.00;94611.09;5076404;28;20293;-78
2021/10/10 07:49:04;;;;;;;39.80;17.13;;;;;;;3.14;100.00;94608.28;5076189;28;20783;-76
2021/10/10 07:51:32;;;;;;;40.60;16.63;;;;;;;3.37;100.00;94615.78;5076478;28;20231;-78
2021/10/10 07:53:59;;;;;;;50.23;17.37;;;;;;;3.55;100.00;94608.97;5075920;28;20676;-76
2021/10/10 07:56:26;;;;;;;42.00;16.73;;;;;;;3.62;100.00;94612.63;5076737;28;20576;-78
2021/10/10 07:58:52;;;;;;;33.17;14.00;;;;;;;3.78;100.00;94608.69;5076148;28;20691;-78
2021/10/10 08:01:20;;;;;;;33.70;13.43;;;;;;;3.89;100.00;94601.59;5076086;28;20256;-76
2021/10/10 08:03:46;;;;;;;34.60;12.47;;;;;;;4.01;100.00;94607.44;5076018;28;20293;-78
2021/10/10 08:06:13;;;;;;;29.03;11.80;;;;;;;4.13;100.00;94605.50;5076139;28;20249;-78
2021/10/10 08:08:39;;;;;;;24.50;11.00;;;;;;;4.15;100.00;94606.16;5075907;28;20203;-78
2021/10/10 08:11:07;;;;;;;18.33;9.80;;;;;;;4.30;100.00;94603.94;5075931;28;20280;-76
2021/10/10 08:13:33;;;;;;;24.60;10.93;;;;;;;4.39;100.00;94604.88;5075959;28;20199;-78
2021/10/10 08:16:00;;;;;;;25.73;10.60;;;;;;;4.43;100.00;94596.69;5075748;28;20245;-78
2021/10/10 08:18:26;;;;;;;27.00;11.37;;;;;;;4.64;100.00;94593.03;5075959;28;20210;-77
2021/10/10 08:20:52;;;;;;;25.47;11.67;;;;;;;4.79;100.00;94596.78;5075845;28;20195;-77
2021/10/10 08:23:19;;;;;;;24.30;10.20;;;;;;;4.73;100.00;94597.38;5075731;28;20206;-78
2021/10/10 08:25:45;;;;;;;20.10;10.57;;;;;;;4.78;100.00;94602.09;5075695;28;20565;-78
2021/10/10 08:28:13;;;;;;;27.03;9.40;;;;;;;4.93;100.00;94600.66;5075570;28;20680;-77
2021/10/10 08:30:40;;;;;;;20.40;9.43;;;;;;;4.95;100.00;94606.50;5075492;28;20227;-77
2021/10/10 08:33:06;;;;;;;21.53;10.70;;;;;;;5.09;100.00;94600.00;5075518;28;20209;-77
2021/10/10 08:35:33;;;;;;;20.43;9.23;;;;;;;5.14;100.00;94596.97;5075596;28;20232;-77
2021/10/10 08:37:59;;;;;;;21.30;9.50;;;;;;;5.26;100.00;94598.41;5075533;28;20203;-77
2021/10/10 08:40:26;;;;;;;22.27;9.33;;;;;;;5.29;100.00;94600.69;5075474;28;20210;-77
2021/10/10 08:42:57;;;;;;;27.77;9.63;;;;;;;5.31;100.00;94603.97;5075563;28;20202;-77
2021/10/10 08:45:29;;;;;;;23.30;9.60;;;;;;;5.38;100.00;94592.03;5075339;28;20615;-77
2021/10/10 08:47:55;;;;;;;22.90;9.03;;;;;;;5.49;100.00;94596.19;5075002;28;20195;-78
2021/10/10 08:50:25;;;;;;;22.77;9.23;;;;;;;5.67;100.00;94597.94;5075212;28;20226;-77
2021/10/10 08:52:55;;;;;;;21.57;10.10;;;;;;;5.85;100.00;94598.75;5075211;28;20260;-77
2021/10/10 08:55:22;;;;;;;16.80;8.37;;;;;;;5.96;100.00;94596.88;5074916;28;20253;-77
2021/10/10 08:57:49;;;;;;;21.57;10.07;;;;;;;6.03;100.00;94598.75;5074935;28;20198;-77
2021/10/10 09:00:17;;;;;;;20.47;8.50;;;;;;;6.21;100.00;94600.44;5075011;28;20248;-78
2021/10/10 09:02:48;;;;;;;18.70;9.37;;;;;;;6.25;100.00;94601.78;5074922;28;20199;-77
2021/10/10 09:05:15;;;;;;;21.63;9.17;;;;;;;6.28;100.00;94604.88;5074888;28;20656;-77
2021/10/10 09:07:43;;;;;;;20.93;9.53;;;;;;;6.29;100.00;94606.53;5074903;28;20207;-77
2021/10/10 09:10:18;;;;;;;20.20;9.70;;;;;;;6.37;100.00;94607.53;5074683;28;20229;-78
2021/10/10 09:12:44;;;;;;;20.17;9.47;;;;;;;6.41;100.00;94606.25;5074853;28;20248;-78
2021/10/10 09:15:12;;;;;;;22.60;9.20;;;;;;;6.49;100.00;94603.69;5074643;28;20198;-77
2021/10/10 09:17:39;;;;;;;21.03;9.67;;;;;;;6.78;100.00;94603.34;5074702;28;20210;-77
2021/10/10 09:20:08;;;;;;;21.20;8.97;;;;;;;6.79;100.00;94598.97;5074610;28;20214;-78
2021/10/10 09:22:36;;;;;;;22.73;10.63;;;;;;;7.03;100.00;94606.03;5074502;28;20198;-78
2021/10/10 09:25:10;;;;;;;20.87;9.60;;;;;;;6.99;100.00;94592.53;5074488;28;20603;-78
2021/10/10 09:27:37;;;;;;;20.43;10.00;;;;;;;7.16;100.00;94595.16;5073332;28;20195;-78
2021/10/10 09:30:05;;;;;;;17.43;8.67;;;;;;;7.24;100.00;94602.97;5074299;28;20227;-77
2021/10/10 09:32:32;;;;;;;16.03;9.00;;;;;;;7.33;100.00;94590.84;5074124;28;20207;-78
2021/10/10 09:34:58;;;;;;;21.13;9.63;;;;;;;7.38;100.00;94597.16;5074166;28;20563;-78
2021/10/10 09:37:39;;;;;;;20.47;8.93;;;;;;;7.59;100.00;94595.88;5073935;28;20713;-77
2021/10/10 09:40:10;;;;;;;18.87;9.20;;;;;;;7.55;100.00;94594.59;5074250;28;20289;-78
2021/10/10 09:42:39;;;;;;;17.90;8.47;;;;;;;7.83;100.00;94599.47;5074237;28;20198;-78
2021/10/10 09:45:17;;;;;;;13.40;6.90;;;;;;;8.07;100.00;94594.25;5074231;28;20211;-77
2021/10/10 09:47:52;;;;;;;13.50;6.87;;;;;;;8.23;100.00;94593.44;5073865;28;20195;-78
2021/10/10 09:50:18;;;;;;;16.70;8.43;;;;;;;8.42;100.00;94596.63;5073961;28;20702;-78
2021/10/10 09:52:46;;;;;;;19.57;7.83;;;;;;;8.46;100.00;94598.78;5073816;28;20203;-78
2021/10/10 09:55:14;;;;;;;20.40;6.87;;;;;;;8.43;100.00;94601.69;5073598;28;20230;-78
2021/10/10 09:57:46;;;;;;;17.20;6.20;;;;;;;8.57;100.00;94607.19;5073804;28;20539;-77
2021/10/10 10:00:19;;;;;;;12.20;5.90;;;;;;;8.67;99.63;94605.22;5072912;28;20294;-78
2021/10/10 10:02:48;;;;;;;15.20;6.17;;;;;;;8.77;99.61;94594.59;5073866;28;20278;-79
2021/10/10 10:05:24;;;;;;;16.20;5.43;;;;;;;8.86;95.79;94602.22;5073954;28;20202;-78
2021/10/10 10:07:53;;;;;;;16.20;5.73;;;;;;;8.96;94.88;94598.56;5073639;28;20202;-79
2021/10/10 10:10:19;;;;;;;12.57;6.20;;;;;;;9.13;100.00;94589.72;5073441;28;20223;-78
2021/10/10 10:12:48;;;;;;;10.20;5.90;;;;;;;9.12;98.19;94598.50;5073409;28;20199;-79
2021/10/10 10:15:15;;;;;;;14.13;5.87;;;;;;;9.14;98.55;94599.13;5073620;28;20199;-78
2021/10/10 10:17:41;;;;;;;14.83;6.10;;;;;;;9.26;97.50;94596.97;5073507;28;20198;-78
2021/10/10 10:20:09;;;;;;;17.23;5.57;;;;;;;9.39;90.52;94593.78;5073450;28;20231;-79
2021/10/10 10:22:36;;;;;;;14.37;6.03;;;;;;;9.31;98.09;94591.22;5073351;28;20661;-78
2021/10/10 10:25:06;;;;;;;14.03;5.23;;;;;;;9.28;96.45;94594.22;5073314;28;20202;-79
2021/10/10 10:27:32;;;;;;;16.93;5.70;;;;;;;9.34;97.88;94593.50;5073240;28;20203;-79
2021/10/10 10:29:59;;;;;;;16.37;6.00;;;;;;;9.40;95.13;94590.22;5073435;28;20198;-78
2021/10/10 10:32:30;;;;;;;12.70;5.83;;;;;;;9.35;95.53;94587.31;5073124;28;20237;-78
2021/10/10 10:34:58;;;;;;;10.63;5.50;;;;;;;9.51;94.94;94586.38;5073134;28;20202;-79
2021/10/10 10:37:50;;;;;;;13.43;6.00;;;;;;;9.52;88.65;94583.59;5073178;28;20252;-79
2021/10/10 10:40:35;;;;;;;11.30;5.17;;;;;;;9.80;90.48;94586.50;5073088;28;20589;-78
2021/10/10 10:43:05;;;;;;;12.53;5.37;;;;;;;9.81;88.29;94592.53;5073307;28;20199;-79
2021/10/10 10:45:36;;;;;;;17.47;5.40;;;;;;;9.95;86.46;94589.16;5072939;28;20604;-79
2021/10/10 10:48:05;;;;;;;11.40;5.40;;;;;;;9.94;91.78;94582.31;5073117;28;20268;-79
2021/10/10 10:50:34;;;;;;;10.10;5.47;;;;;;;9.90;80.94;94585.47;5073177;28;20637;-78
2021/10/10 10:53:02;;;;;;;14.57;5.90;;;;;;;9.84;85.78;94592.16;5073131;28;20221;-78
2021/10/10 10:55:32;;;;;;;12.47;5.77;;;;;;;10.00;81.21;94588.63;5072843;28;20239;-79
2021/10/10 10:58:01;;;;;;;15.13;5.83;;;;;;;9.94;84.33;94586.72;5073035;28;20198;-79
2021/10/10 11:00:30;;;;;;;16.98;6.22;;;;;;;10.07;86.90;94586.13;5072130;28;20801;-79
2021/10/10 11:03:19;;;;;;;10.85;5.85;;;;;;;10.13;81.55;94585.41;5073049;28;20249;-79
2021/10/10 11:05:51;;;;;;;10.90;5.53;;;;;;;10.25;85.26;94578.75;5073011;28;20241;-79
2021/10/10 11:08:37;;;;;;;12.43;5.47;;;;;;;10.19;83.72;94577.69;5072983;28;20252;-78
2021/10/10 11:11:13;;;;;;;14.10;5.77;;;;;;;10.31;85.40;94575.44;5073072;28;20237;-78
2021/10/10 11:13:40;;;;;;;12.40;5.50;;;;;;;10.46;86.28;94570.28;5077176;28;20194;-79
2021/10/10 11:16:09;;;;;;;13.07;5.27;;;;;;;10.40;79.81;94576.19;5076873;28;20657;-79
2021/10/10 11:18:37;;;;;;;11.47;5.47;;;;;;;10.42;82.37;94568.19;5076524;28;20199;-79
2021/10/10 11:21:05;;;;;;;20.07;7.60;;;;;;;10.64;93.08;94566.47;5076813;28;20212;-78
2021/10/10 11:23:33;;;;;;;19.97;9.43;;;;;;;10.69;95.75;94564.97;5076680;28;20251;-78